Time;durP1;ratioP1;P1;durP2;ratioP2;P2;SDS_P1;SDS_P2;PMS_P1;PMS_P2;Temp;Humidity;BMP_temperature;BMP_pressure;BME280_temperature;BME280_humidity;BME280_pressure;Samples;Min_cycle;Max_cycle;Signal;HPM_P1;HPM_P2
2023/03/06 00:00:47;;;;;;;5.65;2.80;;;;;;;1.72;100.00;100948.44;10400533;28;20045;-73
2023/03/06 00:05:47;;;;;;;3.05;2.72;;;;;;;2.01;100.00;100940.47;10416512;28;20033;-73
2023/03/06 00:10:48;;;;;;;5.13;4.13;;;;;;;2.20;100.00;100934.28;10415031;28;20037;-73
2023/03/06 00:15:48;;;;;;;5.88;4.10;;;;;;;2.19;100.00;100937.06;10414819;28;20087;-73
2023/03/06 00:20:48;;;;;;;7.32;3.08;;;;;;;1.94;100.00;100923.31;10398801;28;20073;-73
2023/03/06 00:25:49;;;;;;;5.72;3.00;;;;;;;1.70;100.00;100918.41;10414294;28;20129;-73
2023/03/06 00:30:49;;;;;;;3.38;3.17;;;;;;;1.66;100.00;100910.78;10415514;28;20037;-73
2023/03/06 00:35:50;;;;;;;2.72;2.53;;;;;;;1.86;100.00;100916.00;10415469;28;20053;-73
2023/03/06 00:40:50;;;;;;;3.53;3.03;;;;;;;2.12;100.00;100907.41;10415280;28;20026;-73
2023/03/06 00:45:51;;;;;;;7.78;3.28;;;;;;;2.24;100.00;100902.78;10414012;28;20041;-73
2023/03/06 00:50:51;;;;;;;3.53;2.95;;;;;;;2.27;100.00;100897.97;10414047;28;20042;-73
2023/03/06 00:55:52;;;;;;;2.35;2.15;;;;;;;2.35;100.00;100893.75;10413793;28;20099;-73
2023/03/06 01:00:52;;;;;;;2.40;2.20;;;;;;;2.39;100.00;100879.09;10414893;28;20425;-74
2023/03/06 01:05:53;;;;;;;3.55;2.08;;;;;;;2.38;100.00;100872.91;10414152;28;20500;-74
2023/03/06 01:10:53;;;;;;;3.88;2.80;;;;;;;2.35;100.00;100873.19;10413287;28;20033;-74
2023/03/06 01:15:54;;;;;;;3.35;2.33;;;;;;;2.26;100.00;100871.38;10415651;28;20083;-74
2023/03/06 01:20:54;;;;;;;5.15;2.80;;;;;;;2.11;100.00;100865.69;10413869;28;20041;-74
2023/03/06 01:25:55;;;;;;;2.35;2.15;;;;;;;1.97;100.00;100864.28;10413204;28;20406;-73
2023/03/06 01:30:55;;;;;;;1.77;1.67;;;;;;;1.88;100.00;100875.81;10403211;28;20037;-73
2023/03/06 01:35:56;;;;;;;4.97;2.17;;;;;;;1.82;100.00;100863.03;10420808;28;20060;-73
2023/03/06 01:40:56;;;;;;;2.13;1.88;;;;;;;1.75;100.00;100867.25;10420436;28;20039;-73
2023/03/06 01:46:29;;;;;;;1.75;1.58;;;;;;;1.62;100.00;100852.34;10420897;28;20060;-73
2023/03/06 01:51:51;;;;;;;1.77;1.67;;;;;;;1.56;100.00;100847.59;10422055;28;20156;-73
2023/03/06 01:56:55;;;;;;;2.33;2.22;;;;;;;1.49;100.00;100838.44;10418794;28;20120;-73
2023/03/06 02:01:56;;;;;;;5.90;2.47;;;;;;;1.42;100.00;100837.31;10403670;28;20028;-73
2023/03/06 02:06:58;;;;;;;2.33;1.98;;;;;;;1.34;100.00;100839.84;10421225;28;20072;-73
2023/03/06 02:11:59;;;;;;;2.38;2.25;;;;;;;1.31;100.00;100826.81;10402596;28;20029;-74
2023/03/06 02:17:00;;;;;;;3.67;3.38;;;;;;;1.43;100.00;100823.00;10425063;28;20053;-73
2023/03/06 02:22:01;;;;;;;3.15;3.00;;;;;;;1.45;100.00;100821.03;10420858;28;20041;-73
2023/03/06 02:27:02;;;;;;;5.45;3.97;;;;;;;1.44;100.00;100814.03;10402235;28;20076;-73
2023/03/06 02:32:03;;;;;;;7.07;3.53;;;;;;;1.40;100.00;100801.94;10402124;28;20033;-74
2023/03/06 02:37:07;;;;;;;5.32;3.10;;;;;;;1.30;100.00;100780.59;10418266;28;20037;-73
2023/03/06 02:42:08;;;;;;;5.90;2.75;;;;;;;1.22;100.00;100777.78;10402806;28;20041;-73
2023/03/06 02:47:08;;;;;;;3.17;2.95;;;;;;;1.15;100.00;100782.00;10419019;28;20036;-73
2023/03/06 02:52:09;;;;;;;3.60;2.88;;;;;;;1.15;100.00;100764.19;10419435;28;20092;-73
2023/03/06 02:57:09;;;;;;;5.57;2.67;;;;;;;1.17;100.00;100764.03;10434161;28;20041;-73
2023/03/06 03:02:10;;;;;;;2.85;2.13;;;;;;;1.21;100.00;100753.91;10417912;28;20029;-73
2023/03/06 03:07:10;;;;;;;10.73;3.05;;;;;;;1.38;100.00;100750.56;10400509;28;20029;-73
2023/03/06 03:12:11;;;;;;;4.53;2.65;;;;;;;1.61;100.00;100757.25;10416948;28;20041;-73
2023/03/06 03:17:11;;;;;;;6.20;2.40;;;;;;;1.83;100.00;100755.25;10377417;28;20137;-74
2023/03/06 03:22:12;;;;;;;2.58;2.15;;;;;;;2.01;100.00;100750.84;10375673;28;20081;-73
2023/03/06 03:27:13;;;;;;;9.80;3.40;;;;;;;2.18;100.00;100749.22;10377373;28;20173;-73
2023/03/06 03:32:13;;;;;;;2.33;2.22;;;;;;;2.30;100.00;100739.22;10375956;28;20038;-73
2023/03/06 03:37:14;;;;;;;3.22;2.45;;;;;;;2.37;100.00;100728.75;10375145;28;20107;-73
2023/03/06 03:42:15;;;;;;;5.68;3.40;;;;;;;2.43;100.00;100726.34;10375530;28;20533;-73
2023/03/06 03:47:15;;;;;;;3.17;2.88;;;;;;;2.50;100.00;100724.75;10374261;28;20053;-74
2023/03/06 03:52:16;;;;;;;4.43;3.40;;;;;;;2.60;100.00;100723.84;10373795;28;20038;-73
2023/03/06 03:57:16;;;;;;;6.82;3.47;;;;;;;2.69;100.00;100717.59;10375831;28;20037;-73
2023/03/06 04:02:17;;;;;;;2.72;2.35;;;;;;;2.70;100.00;100704.06;10374869;28;20120;-73
2023/03/06 04:07:17;;;;;;;2.40;2.30;;;;;;;2.76;100.00;100699.97;10374605;28;20493;-73
2023/03/06 04:12:18;;;;;;;9.23;3.28;;;;;;;2.79;100.00;100689.78;10375213;28;20041;-73
2023/03/06 04:17:19;;;;;;;4.15;3.53;;;;;;;2.82;100.00;100680.63;10416026;28;20065;-73
2023/03/06 04:22:20;;;;;;;4.68;4.22;;;;;;;2.84;100.00;100684.00;10415255;28;20077;-73
2023/03/06 04:27:21;;;;;;;3.95;3.75;;;;;;;2.85;100.00;100677.66;10399408;28;20124;-73
2023/03/06 04:32:22;;;;;;;5.90;4.28;;;;;;;2.90;100.00;100671.84;10417579;28;20034;-73
2023/03/06 04:37:24;;;;;;;12.27;4.45;;;;;;;2.94;100.00;100671.38;10415269;28;20523;-73
2023/03/06 04:42:24;;;;;;;11.85;4.38;;;;;;;3.01;100.00;100666.25;10397300;28;20029;-72
2023/03/06 04:47:25;;;;;;;5.55;5.05;;;;;;;3.03;100.00;100657.09;10414656;28;20132;-72
2023/03/06 04:52:25;;;;;;;8.48;4.38;;;;;;;3.05;100.00;100648.06;10415831;28;20033;-72
2023/03/06 04:57:26;;;;;;;5.00;4.60;;;;;;;3.08;100.00;100647.75;10413912;28;20041;-73
2023/03/06 05:02:26;;;;;;;6.10;4.47;;;;;;;3.15;100.00;100651.47;10431980;28;20125;-73
2023/03/06 05:07:27;;;;;;;6.22;5.07;;;;;;;3.22;100.00;100657.88;10422896;28;20033;-73
2023/03/06 05:12:27;;;;;;;10.38;5.03;;;;;;;3.24;100.00;100656.75;10421718;28;20056;-73
2023/03/06 05:17:28;;;;;;;6.35;4.93;;;;;;;3.23;100.00;100651.56;10406752;28;20073;-73
2023/03/06 05:22:29;;;;;;;7.03;4.50;;;;;;;3.21;100.00;100646.34;10404235;28;20049;-73
2023/03/06 05:27:29;;;;;;;7.63;5.00;;;;;;;3.26;100.00;100637.88;10423350;28;20033;-73
2023/03/06 05:32:30;;;;;;;8.05;4.68;;;;;;;3.29;100.00;100640.22;10387887;28;20040;-71
2023/03/06 05:37:30;;;;;;;8.77;3.95;;;;;;;3.33;100.00;100638.06;10421314;28;20420;-72
2023/03/06 05:42:31;;;;;;;6.28;3.97;;;;;;;3.43;100.00;100638.81;10422942;28;20172;-73
2023/03/06 05:47:32;;;;;;;9.68;4.40;;;;;;;3.53;100.00;100636.84;10421459;28;20029;-72
2023/03/06 05:52:32;;;;;;;5.55;3.47;;;;;;;3.59;100.00;100630.03;10420879;28;20026;-72
2023/03/06 05:57:33;;;;;;;3.63;3.03;;;;;;;3.68;100.00;100637.13;10420453;28;20030;-72
2023/03/06 06:02:33;;;;;;;16.27;3.20;;;;;;;3.80;100.00;100641.19;10420282;28;20041;-74
2023/03/06 06:07:34;;;;;;;7.78;3.22;;;;;;;3.80;100.00;100645.69;10418755;28;20029;-74
2023/03/06 06:12:34;;;;;;;1.65;1.55;;;;;;;3.75;100.00;100656.06;10420838;28;20080;-74
2023/03/06 06:17:34;;;;;;;1.70;1.63;;;;;;;3.72;100.00;100649.19;10418229;28;20076;-74
2023/03/06 06:22:36;;;;;;;8.50;2.35;;;;;;;3.69;100.00;100649.50;10420158;28;20049;-74
2023/03/06 06:27:37;;;;;;;1.63;1.52;;;;;;;3.65;100.00;100661.53;10418702;28;20033;-74
2023/03/06 06:32:37;;;;;;;3.90;1.60;;;;;;;3.65;100.00;100651.66;10418452;28;20037;-74
2023/03/06 06:37:38;;;;;;;1.90;1.73;;;;;;;3.66;100.00;100655.16;10419176;28;20037;-74
2023/03/06 06:42:38;;;;;;;3.47;1.60;;;;;;;3.58;100.00;100652.47;10402402;28;20505;-74
2023/03/06 06:47:40;;;;;;;5.68;2.13;;;;;;;3.56;100.00;100647.25;10402760;28;20033;-74
2023/03/06 06:52:40;;;;;;;6.20;1.50;;;;;;;3.55;100.00;100647.44;10418907;28;20052;-74
2023/03/06 06:57:41;;;;;;;2.10;1.40;;;;;;;3.53;100.00;100657.44;10420187;28;20041;-74
2023/03/06 07:02:41;;;;;;;5.57;2.70;;;;;;;3.56;100.00;100655.28;10417428;28;20042;-74
2023/03/06 07:07:43;;;;;;;8.75;2.03;;;;;;;3.64;100.00;100652.66;10419209;28;20040;-74
2023/03/06 07:12:44;;;;;;;2.40;2.00;;;;;;;3.76;100.00;100653.22;10401402;28;20057;-74
2023/03/06 07:17:44;;;;;;;10.05;2.08;;;;;;;3.89;100.00;100650.97;10399680;28;20044;-74
2023/03/06 07:22:45;;;;;;;5.03;2.08;;;;;;;4.03;100.00;100646.00;10416476;28;20389;-74
2023/03/06 07:27:45;;;;;;;3.97;2.95;;;;;;;4.07;100.00;100647.34;10417275;28;20483;-74
2023/03/06 07:32:52;;;;;;;4.78;1.73;;;;;;;4.25;100.00;100650.75;10416886;28;20477;-74
2023/03/06 07:37:53;;;;;;;4.32;2.00;;;;;;;4.53;100.00;100647.81;10400937;28;20033;-74
2023/03/06 07:42:54;;;;;;;5.13;2.13;;;;;;;4.65;100.00;100647.31;10416690;28;20042;-80
2023/03/06 07:47:55;;;;;;;8.98;2.42;;;;;;;4.74;100.00;100645.50;10417109;28;20039;-79
2023/03/06 07:52:55;;;;;;;1.90;1.80;;;;;;;5.27;100.00;100651.41;10419574;28;20048;-79
2023/03/06 07:57:56;;;;;;;3.55;1.50;;;;;;;5.49;100.00;100649.88;10439939;28;20037;-80
2023/03/06 08:02:56;;;;;;;7.35;1.70;;;;;;;5.38;100.00;100647.50;10424028;28;20494;-80
2023/03/06 08:07:57;;;;;;;2.05;1.88;;;;;;;5.28;100.00;100643.16;10400239;28;20053;-80
2023/03/06 08:12:57;;;;;;;1.55;1.50;;;;;;;5.15;100.00;100645.53;10418188;28;20103;-82
2023/03/06 08:17:58;;;;;;;5.28;2.00;;;;;;;5.15;100.00;100642.84;10419628;28;20111;-80
2023/03/06 08:22:59;;;;;;;1.33;1.23;;;;;;;5.15;100.00;100648.22;10407786;28;20124;-79
2023/03/06 08:27:59;;;;;;;4.53;1.38;;;;;;;5.39;100.00;100643.81;10429561;28;20052;-79
2023/03/06 08:33:00;;;;;;;1.95;1.40;;;;;;;5.44;100.00;100644.16;10434209;28;20036;-79
2023/03/06 08:38:01;;;;;;;2.85;2.03;;;;;;;5.44;100.00;100657.59;10435923;28;20120;-80
2023/03/06 08:43:01;;;;;;;1.23;1.08;;;;;;;5.40;100.00;100656.25;10406839;28;20527;-79
2023/03/06 08:48:02;;;;;;;3.85;1.73;;;;;;;5.27;100.00;100657.59;10416061;28;20116;-79
2023/03/06 08:53:02;;;;;;;3.40;2.45;;;;;;;5.13;100.00;100647.53;10416217;28;20128;-80
2023/03/06 08:58:03;;;;;;;5.78;5.15;;;;;;;5.03;100.00;100649.53;10417429;28;20048;-80
2023/03/06 09:03:04;;;;;;;8.45;7.15;;;;;;;5.24;100.00;100649.06;10417733;28;20606;-80
2023/03/06 09:08:04;;;;;;;11.43;7.72;;;;;;;5.41;100.00;100641.81;10445691;28;20037;-80
2023/03/06 09:13:04;;;;;;;10.20;7.78;;;;;;;5.41;100.00;100647.19;10421383;28;20512;-80
2023/03/06 09:18:05;;;;;;;7.93;7.13;;;;;;;5.46;100.00;100645.66;10416195;28;20597;-79
2023/03/06 09:23:05;;;;;;;15.70;5.70;;;;;;;5.42;100.00;100651.53;10448097;28;20033;-79
2023/03/06 09:28:06;;;;;;;4.75;4.35;;;;;;;5.28;100.00;100651.22;10400820;28;20034;-78
2023/03/06 09:33:07;;;;;;;9.45;4.90;;;;;;;5.38;100.00;100652.88;10425128;28;20033;-77
2023/03/06 09:38:07;;;;;;;4.05;3.65;;;;;;;5.79;100.00;100651.78;10418335;28;20420;-77
2023/03/06 09:43:12;;;;;;;4.97;4.53;;;;;;;6.25;100.00;100643.94;10413663;28;20034;-78
2023/03/06 09:48:13;;;;;;;11.57;7.30;;;;;;;6.65;100.00;100642.00;10419055;28;20034;-76
2023/03/06 09:53:54;;;;;;;8.45;6.03;;;;;;;7.03;100.00;100639.38;10463608;28;20029;-78
2023/03/06 09:58:58;;;;;;;14.98;6.07;;;;;;;6.70;100.00;100639.63;10411921;28;20029;-79
2023/03/06 10:04:17;;;;;;;10.77;6.68;;;;;;;6.62;100.00;100631.59;10403416;28;20424;-78
2023/03/06 10:09:20;;;;;;;11.30;7.13;;;;;;;6.78;100.00;100629.81;10421782;28;20036;-78
2023/03/06 10:14:44;;;;;;;8.88;7.97;;;;;;;7.42;100.00;100619.50;10419521;28;20137;-80
2023/03/06 10:19:46;;;;;;;14.10;8.13;;;;;;;7.56;100.00;100616.00;10422658;28;20025;-80
2023/03/06 10:24:55;;;;;;;11.65;7.13;;;;;;;7.72;100.00;100617.66;10422675;28;20073;-79
2023/03/06 10:30:00;;;;;;;14.00;7.72;;;;;;;8.23;100.00;100616.84;10422689;28;20033;-81
2023/03/06 10:35:01;;;;;;;8.52;6.72;;;;;;;8.47;100.00;100602.22;10420453;28;20059;-80
2023/03/06 10:40:07;;;;;;;9.40;6.30;;;;;;;8.25;100.00;100612.94;10386973;28;20036;-80
2023/03/06 10:45:09;;;;;;;10.60;6.35;;;;;;;8.39;100.00;100597.78;10404853;28;20041;-80
2023/03/06 10:50:26;;;;;;;8.68;6.03;;;;;;;8.27;100.00;100596.59;10425489;28;20065;-80
2023/03/06 10:55:28;;;;;;;;;;;;;;;8.10;100.00;100588.72;10427030;28;20120;-80
2023/03/06 11:00:32;;;;;;;7.47;5.55;;;;;;;8.28;100.00;100591.00;10420784;28;20403;-80
2023/03/06 11:05:33;;;;;;;6.40;4.97;;;;;;;8.88;100.00;100583.53;10419583;28;20097;-80
2023/03/06 11:10:34;;;;;;;7.20;6.13;;;;;;;8.91;100.00;100575.06;10419607;28;20033;-78
2023/03/06 11:15:35;;;;;;;13.43;5.13;;;;;;;9.12;100.00;100574.16;10418429;28;20088;-79
2023/03/06 11:20:48;;;;;;;5.43;4.22;;;;;;;9.38;100.00;100568.16;10400855;28;20480;-78
2023/03/06 11:25:55;;;;;;;8.85;4.13;;;;;;;9.66;100.00;100573.50;10384480;28;20129;-79
2023/03/06 11:31:07;;;;;;;6.82;5.45;;;;;;;9.44;100.00;100569.19;10421854;28;20063;-79
2023/03/06 11:36:30;;;;;;;6.32;4.82;;;;;;;9.10;100.00;100567.31;10417212;28;20388;-79
2023/03/06 11:41:47;;;;;;;12.68;5.28;;;;;;;8.74;100.00;100561.00;10415508;28;20045;-79
2023/03/06 11:46:50;;;;;;;9.43;6.55;;;;;;;8.58;100.00;100555.84;10420176;28;20461;-77
2023/03/06 11:51:55;;;;;;;5.63;4.78;;;;;;;8.66;100.00;100565.69;10390539;28;20120;-79
2023/03/06 11:57:14;;;;;;;9.30;5.13;;;;;;;8.42;100.00;100550.69;10412952;28;20033;-80
2023/03/06 12:02:28;;;;;;;6.28;4.90;;;;;;;8.41;100.00;100541.78;10414110;28;20033;-78
2023/03/06 12:07:39;;;;;;;7.78;5.03;;;;;;;8.72;100.00;100532.53;10453404;28;20034;-78
2023/03/06 12:13:01;;;;;;;8.07;5.68;;;;;;;8.71;100.00;100533.53;10435549;28;20049;-79
2023/03/06 12:18:27;;;;;;;6.95;5.20;;;;;;;9.13;100.00;100515.59;10455908;28;20053;-77
2023/03/06 12:23:53;;;;;;;8.43;5.38;;;;;;;9.12;100.00;100511.22;10433164;28;20026;-79
2023/03/06 12:29:17;;;;;;;10.85;4.90;;;;;;;9.35;100.00;100498.28;10419167;28;20037;-78
2023/03/06 12:34:20;;;;;;;19.95;6.40;;;;;;;9.44;100.00;100490.81;10386027;28;20067;-79
2023/03/06 12:40:15;;;;;;;6.22;5.03;;;;;;;9.66;100.00;100488.84;10416953;28;20050;-79
2023/03/06 12:45:49;;;;;;;4.95;4.30;;;;;;;10.14;100.00;100483.38;10373557;28;20129;-79
2023/03/06 12:50:49;;;;;;;9.05;5.13;;;;;;;10.49;100.00;100475.97;10404894;28;20046;-79
2023/03/06 12:55:49;;;;;;;8.52;5.25;;;;;;;9.62;100.00;100479.47;10403254;28;20125;-79
2023/03/06 13:01:11;;;;;;;4.30;3.85;;;;;;;8.74;100.00;100471.91;10404013;28;20021;-79
2023/03/06 13:06:15;;;;;;;6.93;5.68;;;;;;;8.73;100.00;100467.53;10417720;28;20033;-80
2023/03/06 13:11:22;;;;;;;14.27;4.50;;;;;;;8.93;100.00;100462.25;10410013;28;20034;-79
2023/03/06 13:16:25;;;;;;;6.80;4.57;;;;;;;9.12;100.00;100443.69;10428021;28;20107;-78
2023/03/06 13:21:42;;;;;;;9.15;5.72;;;;;;;8.97;100.00;100441.94;10427516;28;20026;-78
2023/03/06 13:26:42;;;;;;;6.88;6.22;;;;;;;8.77;100.00;100440.97;10424090;28;20029;-80
2023/03/06 13:31:42;;;;;;;10.13;6.03;;;;;;;8.76;100.00;100442.84;10422688;28;20041;-79
2023/03/06 13:36:43;;;;;;;13.60;7.63;;;;;;;8.19;100.00;100441.09;10441180;28;20060;-79
2023/03/06 13:42:05;;;;;;;16.67;8.85;;;;;;;7.90;100.00;100425.88;10461647;28;20045;-79
2023/03/06 13:47:35;;;;;;;15.68;8.27;;;;;;;7.84;100.00;100432.03;10435204;28;20457;-79
2023/03/06 13:52:45;;;;;;;14.55;9.32;;;;;;;7.74;100.00;100431.50;10408235;28;20041;-79
2023/03/06 13:57:58;;;;;;;13.70;9.70;;;;;;;7.62;100.00;100429.28;10422385;28;20124;-79
2023/03/06 14:03:14;;;;;;;19.02;9.82;;;;;;;7.33;100.00;100415.88;10420898;28;20048;-78
2023/03/06 14:08:19;;;;;;;17.13;11.32;;;;;;;7.19;100.00;100406.81;10423807;28;20099;-79
2023/03/06 14:13:22;;;;;;;17.65;11.68;;;;;;;7.11;100.00;100399.66;10423780;28;20059;-78
2023/03/06 14:18:32;;;;;;;17.95;13.10;;;;;;;7.30;100.00;100394.72;10407137;28;20041;-80
2023/03/06 14:23:36;;;;;;;12.25;7.47;;;;;;;7.39;100.00;100390.88;10407031;28;20040;-80
2023/03/06 14:28:37;;;;;;;19.63;11.18;;;;;;;7.21;100.00;100380.50;10421578;28;20095;-80
2023/03/06 14:33:41;;;;;;;12.70;8.63;;;;;;;6.97;100.00;100371.72;10402179;28;20093;-79
2023/03/06 14:38:50;;;;;;;6.30;4.97;;;;;;;6.80;100.00;100385.59;10418842;28;20038;-80
2023/03/06 14:43:51;;;;;;;6.63;5.97;;;;;;;6.13;100.00;100362.22;10417890;28;20032;-79
2023/03/06 14:48:51;;;;;;;10.23;5.40;;;;;;;5.90;100.00;100373.78;10388451;28;20034;-81
2023/03/06 14:53:52;;;;;;;10.02;4.72;;;;;;;5.71;100.00;100375.13;10402203;28;20542;-80
2023/03/06 14:59:00;;;;;;;5.85;3.88;;;;;;;5.78;100.00;100359.94;10402437;28;20061;-80
2023/03/06 15:04:01;;;;;;;3.63;3.33;;;;;;;5.81;100.00;100356.91;10418742;28;20326;-79
2023/03/06 15:09:06;;;;;;;4.15;3.83;;;;;;;5.84;100.00;100347.66;10402173;28;20041;-81
2023/03/06 15:14:16;;;;;;;5.32;4.45;;;;;;;5.88;100.00;100340.88;10401209;28;20049;-79
2023/03/06 15:19:18;;;;;;;7.78;6.10;;;;;;;5.69;100.00;100328.78;10418425;28;20037;-80
2023/03/06 15:24:34;;;;;;;11.80;7.65;;;;;;;5.47;100.00;100318.88;10402756;28;20026;-80
2023/03/06 15:29:37;;;;;;;9.37;7.73;;;;;;;5.32;100.00;100321.47;10425369;28;20477;-79
2023/03/06 15:34:37;;;;;;;8.02;6.78;;;;;;;5.37;100.00;100316.41;10433725;28;20109;-81
2023/03/06 15:39:38;;;;;;;11.48;7.30;;;;;;;5.43;100.00;100298.78;10413593;28;20212;-81
2023/03/06 15:44:39;;;;;;;9.85;7.57;;;;;;;5.43;100.00;100301.47;10401303;28;20416;-80
2023/03/06 15:49:39;;;;;;;14.30;9.35;;;;;;;5.13;100.00;100301.28;10387420;28;20056;-80
2023/03/06 15:54:40;;;;;;;12.35;9.48;;;;;;;4.85;100.00;100285.69;10423228;28;20069;-80
2023/03/06 15:59:41;;;;;;;9.80;7.75;;;;;;;4.67;100.00;100274.38;10420590;28;20112;-78
2023/03/06 16:04:42;;;;;;;14.20;9.57;;;;;;;4.38;100.00;100270.47;10417991;28;20032;-80
2023/03/06 16:09:43;;;;;;;14.45;10.98;;;;;;;4.19;100.00;100284.25;10416773;28;20377;-82
2023/03/06 16:14:44;;;;;;;13.98;10.68;;;;;;;4.05;100.00;100274.22;10417181;28;20113;-80
2023/03/06 16:19:45;;;;;;;11.38;9.25;;;;;;;3.86;100.00;100270.94;10399751;28;20046;-81
2023/03/06 16:24:45;;;;;;;15.00;13.48;;;;;;;3.82;100.00;100269.56;10417116;28;20029;-79
2023/03/06 16:29:45;;;;;;;23.60;12.30;;;;;;;3.73;100.00;100251.84;10419406;28;20397;-80
2023/03/06 16:34:46;;;;;;;16.38;11.68;;;;;;;3.64;100.00;100255.56;10435733;28;20374;-82
2023/03/06 16:39:46;;;;;;;21.10;13.70;;;;;;;3.66;100.00;100253.53;10419908;28;20037;-79
2023/03/06 16:44:47;;;;;;;17.50;13.27;;;;;;;3.57;100.00;100238.47;10417632;28;20072;-81
2023/03/06 16:49:47;;;;;;;22.80;13.68;;;;;;;3.47;100.00;100230.63;10414974;28;20037;-79
2023/03/06 16:54:48;;;;;;;22.67;14.43;;;;;;;3.54;100.00;100228.09;10415342;28;20040;-80
2023/03/06 16:59:48;;;;;;;26.08;14.13;;;;;;;3.44;100.00;100218.41;10415640;28;20040;-80
2023/03/06 17:04:49;;;;;;;16.80;13.20;;;;;;;3.43;100.00;100218.59;10421849;28;20098;-79
2023/03/06 17:09:49;;;;;;;27.70;17.85;;;;;;;3.34;100.00;100204.34;10423019;28;20124;-77
2023/03/06 17:14:51;;;;;;;15.43;12.90;;;;;;;3.33;100.00;100205.38;10424232;28;20093;-79
2023/03/06 17:19:51;;;;;;;24.15;15.50;;;;;;;3.42;100.00;100193.66;10424183;28;20052;-78
2023/03/06 17:24:52;;;;;;;27.23;16.20;;;;;;;3.41;100.00;100186.63;10424349;28;20065;-78
2023/03/06 17:29:55;;;;;;;27.30;17.75;;;;;;;3.37;100.00;100185.28;10406475;28;20033;-78
2023/03/06 17:34:55;;;;;;;22.58;14.80;;;;;;;3.33;100.00;100178.59;10407448;28;20073;-78
2023/03/06 17:39:56;;;;;;;31.55;17.33;;;;;;;3.40;100.00;100166.22;10422186;28;20450;-78
2023/03/06 17:44:56;;;;;;;30.17;19.52;;;;;;;3.36;100.00;100167.56;10422011;28;20531;-77
2023/03/06 17:49:57;;;;;;;21.77;14.38;;;;;;;3.30;100.00;100157.53;10406187;28;20041;-77
2023/03/06 17:54:57;;;;;;;29.65;20.75;;;;;;;3.21;100.00;100158.53;10409917;28;20389;-78
2023/03/06 17:59:58;;;;;;;28.90;16.10;;;;;;;3.17;100.00;100152.69;10429706;28;20033;-77
2023/03/06 18:04:58;;;;;;;30.85;20.52;;;;;;;3.25;100.00;100139.31;10422246;28;20041;-77
2023/03/06 18:09:58;;;;;;;25.08;17.50;;;;;;;3.29;100.00;100133.59;10420230;28;20493;-77
2023/03/06 18:14:59;;;;;;;29.73;20.67;;;;;;;3.41;100.00;100133.09;10419754;28;20064;-76
2023/03/06 18:19:59;;;;;;;15.00;12.20;;;;;;;3.48;100.00;100130.59;10402752;28;20140;-77
2023/03/06 18:25:00;;;;;;;29.60;19.38;;;;;;;3.57;100.00;100120.69;10420138;28;20381;-75
2023/03/06 18:30:00;;;;;;;26.13;16.83;;;;;;;3.70;100.00;100116.47;10419037;28;20041;-76
2023/03/06 18:35:01;;;;;;;21.33;14.82;;;;;;;3.70;100.00;100102.22;10419661;28;20090;-75
2023/03/06 18:40:01;;;;;;;29.70;19.23;;;;;;;3.73;100.00;100089.38;10418889;28;20045;-73
2023/03/06 18:45:02;;;;;;;27.90;17.20;;;;;;;3.86;100.00;100075.41;10418336;28;20118;-74
2023/03/06 18:50:02;;;;;;;36.65;18.33;;;;;;;3.92;100.00;100071.19;10421478;28;20119;-74
2023/03/06 18:55:03;;;;;;;22.15;14.63;;;;;;;4.02;100.00;100070.97;10420229;28;20037;-74
2023/03/06 19:00:05;;;;;;;25.48;17.98;;;;;;;4.14;100.00;100057.00;10419144;28;20075;-74
2023/03/06 19:05:06;;;;;;;22.60;17.45;;;;;;;4.29;100.00;100041.00;10417627;28;20037;-75
2023/03/06 19:10:06;;;;;;;21.40;14.23;;;;;;;4.45;100.00;100048.09;10421341;28;20034;-77
2023/03/06 19:15:07;;;;;;;19.25;14.75;;;;;;;4.57;100.00;100027.06;10416820;28;20142;-75
2023/03/06 19:20:08;;;;;;;20.27;15.27;;;;;;;4.62;100.00;100022.81;10419333;28;20049;-76
2023/03/06 19:25:09;;;;;;;19.35;15.23;;;;;;;4.80;100.00;100005.59;10416302;28;20465;-77
2023/03/06 19:30:13;;;;;;;19.13;14.95;;;;;;;4.91;100.00;100005.13;10416577;28;20042;-77
2023/03/06 19:35:13;;;;;;;15.90;14.38;;;;;;;4.95;100.00;99998.41;10415524;28;20610;-76
2023/03/06 19:40:14;;;;;;;26.13;15.52;;;;;;;4.98;100.00;99998.03;10415699;28;20124;-77
2023/03/06 19:45:14;;;;;;;17.55;13.98;;;;;;;4.98;100.00;99989.97;10415501;28;20437;-78
2023/03/06 19:50:15;;;;;;;19.40;13.23;;;;;;;5.03;100.00;99989.41;10415797;28;20099;-79
2023/03/06 19:55:15;;;;;;;13.52;12.05;;;;;;;5.04;100.00;99980.34;10400540;28;20053;-74
2023/03/06 20:00:16;;;;;;;18.63;10.07;;;;;;;5.02;100.00;99979.72;10416634;28;20088;-78
2023/03/06 20:05:16;;;;;;;9.05;8.15;;;;;;;4.99;100.00;99978.22;10416990;28;20041;-77
2023/03/06 20:10:17;;;;;;;10.93;6.07;;;;;;;5.00;100.00;99968.31;10417080;28;20037;-76
2023/03/06 20:15:19;;;;;;;6.60;4.75;;;;;;;5.01;100.00;99964.59;10401771;28;20052;-76
2023/03/06 20:20:19;;;;;;;3.97;3.63;;;;;;;5.00;100.00;99960.28;10420583;28;20034;-74
2023/03/06 20:25:19;;;;;;;5.20;3.58;;;;;;;4.93;100.00;99951.31;10414879;28;20439;-75
2023/03/06 20:30:20;;;;;;;12.10;4.10;;;;;;;4.92;100.00;99944.28;10413372;28;20072;-74
2023/03/06 20:35:21;;;;;;;7.13;3.55;;;;;;;4.88;100.00;99950.00;10412556;28;20513;-72
2023/03/06 20:40:21;;;;;;;4.43;3.33;;;;;;;4.82;100.00;99936.50;10413735;28;20029;-76
2023/03/06 20:45:22;;;;;;;3.17;2.72;;;;;;;4.81;100.00;99921.41;10412900;28;20446;-75
2023/03/06 20:50:22;;;;;;;2.85;2.60;;;;;;;4.73;100.00;99927.69;10412852;28;20401;-77
2023/03/06 20:55:23;;;;;;;12.23;3.90;;;;;;;4.73;100.00;99930.38;10413432;28;20033;-73
2023/03/06 21:00:23;;;;;;;4.75;3.72;;;;;;;4.76;100.00;99938.06;10413462;28;20032;-73
2023/03/06 21:05:24;;;;;;;14.10;5.43;;;;;;;4.81;100.00;99938.31;10412492;28;20151;-73
2023/03/06 21:10:24;;;;;;;10.15;4.75;;;;;;;4.96;100.00;99937.53;10412091;28;20473;-74
2023/03/06 21:15:28;;;;;;;5.82;4.55;;;;;;;5.09;100.00;99948.44;10413872;28;20081;-76
2023/03/06 21:20:29;;;;;;;10.43;3.70;;;;;;;5.02;100.00;99940.28;10414797;28;20414;-79
2023/03/06 21:25:29;;;;;;;5.03;3.60;;;;;;;4.99;100.00;99923.75;10413184;28;20034;-79
2023/03/06 21:30:30;;;;;;;12.88;5.28;;;;;;;4.97;100.00;99937.31;10396024;28;20055;-77
2023/03/06 21:35:30;;;;;;;10.48;3.90;;;;;;;4.95;100.00;99925.97;10414243;28;20076;-76
2023/03/06 21:40:31;;;;;;;7.38;3.17;;;;;;;4.95;100.00;99923.28;10413381;28;20121;-75
2023/03/06 21:45:31;;;;;;;3.40;3.08;;;;;;;4.95;100.00;99915.22;10413191;28;20443;-76
2023/03/06 21:50:31;;;;;;;7.45;3.63;;;;;;;4.95;100.00;99903.66;10419201;28;20033;-75
2023/03/06 21:55:32;;;;;;;4.13;2.95;;;;;;;4.98;100.00;99901.44;10419221;28;20041;-75
2023/03/06 22:00:35;;;;;;;11.32;4.57;;;;;;;5.05;100.00;99901.53;10420197;28;20365;-73
2023/03/06 22:05:35;;;;;;;7.78;3.88;;;;;;;5.08;100.00;99896.63;10420526;28;20041;-74
2023/03/06 22:10:39;;;;;;;11.10;4.55;;;;;;;5.07;100.00;99894.09;10419574;28;20064;-75
2023/03/06 22:15:48;;;;;;;8.60;2.95;;;;;;;5.05;100.00;99893.47;10418096;28;20057;-75
2023/03/06 22:20:48;;;;;;;7.32;1.98;;;;;;;5.00;100.00;99872.56;10419749;28;20424;-76
2023/03/06 22:25:48;;;;;;;4.68;2.30;;;;;;;5.00;100.00;99877.09;10419746;28;20084;-74
2023/03/06 22:30:49;;;;;;;6.47;2.72;;;;;;;4.94;100.00;99875.16;10418709;28;20041;-74
2023/03/06 22:35:49;;;;;;;9.25;3.10;;;;;;;4.89;100.00;99876.56;10427818;28;20069;-75
2023/03/06 22:40:50;;;;;;;4.13;2.63;;;;;;;4.79;100.00;99885.91;10434682;28;20045;-74
2023/03/06 22:45:51;;;;;;;6.32;4.10;;;;;;;4.75;100.00;99882.75;10432037;28;20033;-77
2023/03/06 22:50:51;;;;;;;3.67;3.38;;;;;;;4.74;100.00;99877.56;10441124;28;20032;-75
2023/03/06 22:55:52;;;;;;;7.78;5.75;;;;;;;4.71;100.00;99875.25;10420445;28;20040;-75
2023/03/06 23:00:52;;;;;;;14.00;4.43;;;;;;;4.69;100.00;99875.47;10417539;28;20124;-74
2023/03/06 23:05:53;;;;;;;9.88;4.18;;;;;;;4.80;100.00;99874.16;10418567;28;20045;-74